Aviation Digital Data Service (ADDS)

Output produced by TAFs form (0945 UTC 25 February 2018)
found at http://aviationweather.gov/adds/tafs/
 
KROW 250525Z 2506/2606 VRB06KT P6SM SKC 
     FM251400 33008KT P6SM SKC 
     FM251800 34015G25KT P6SM SKC 
     FM260100 30006KT P6SM SKC